HKNW/WIL METAR and TAF weather

Enter ICAO airport designator
Station Type Date Time Source
HKNW METAR 2019/02/23 10:00 UTC NOAA

HKNW 231000Z 06012KT 9999 FEW026CB BKN030 26/13 Q1020


Station Type Date Time Source
HKNW Decoded METAR 2019/02/23 10:00 UTC NOAA

Nairobi / Wilson, Kenya (HKNW) 01-19S 036-49E 1679M
Feb 23, 2019 - 05:00 AM EST / 2019.02.23 1000 UTC
Wind: from the ENE (060 degrees) at 14 MPH (12 KT):0
Visibility: greater than 7 mile(s):0
Sky conditions: mostly cloudy
Weather: Cumulonimbus clouds observed
Temperature: 78 F (26 C)
Dew Point: 55 F (13 C)
Relative Humidity: 44%
Pressure (altimeter): 30.12 in. Hg (1020 hPa)
ob: HKNW 231000Z 06012KT 9999 FEW026CB BKN030 26/13 Q1020
cycle: 10

Station Type Date Time Source
HKNW TAF 2012/11/22 12:18 UTC NOAA

TAF TAF HKNW 221030Z 2212/2312 03010KT 9999 FEW025CB SCT026
TEMPO 2212/2218 VRB10KT -SHRA FEW024CB BKN025
BECMG 2220/2223 07005KT CAVOK
TEMPO 2300/2300 VRB05KT 9999 FEW006 BKN016
BECMG 2308/2311 08010KT SCT026


Example: see airport list